EDMA METAR and TAF | Updated Today

EDMA METAR

Augsburg Airport

Observation time: 18 min. ago

EDMA 010720Z 19007KT CAVOK 09/08 Q1014

Need help? Read our tutorial on how to read METARs or read the parsed version below.

Augsburg Airport (EDMA) METAR

  • Weather conditions on Sat, 01 Oct 2022 07:20:00 +0000 (18 min. ago):
  • Present conditions: Dry
  • Clouds: Clear skies
  • Visibility: Greater than 10 km
  • Wind: 190 degrees at 7 knots
  • Temperature: 9 celsius
  • Dew point: 8 celsius
  • Pressure: 1014 millibars
  • Remarks: None


Useful to know...

EDMA TAF

Augsburg Airport

TAF EDMA 010500Z 0106/0115 18005KT 9999 SCT035 BECMG 0106/0108 21010KT TEMPO 0109/0113 4000 RA TEMPO 0111/0115 23015G25KT
Observation time: 2:38 hr. ago
Need help? Read our tutorial on how to read TAFs or read the parsed version below.

Parsed version of TAF for Augsburg Airport (EDMA)

  • From 01 October at 06:00 UTC, to day 01 of the month at 15:00 UTC
  • Clouds: Scattered at 1067 meters
  • Visibility: Greater than 10 km
  • Wind: 180 degrees at 5
  • Expected to arise soon, from 01 October at 06:00 UTC, to day 01 of the month at 08:00 UTC
  • Wind: 210 degrees at 10
  • Expected to arise temporarily, from 01 October at 09:00 UTC, to day 01 of the month at 13:00 UTC
  • Visibility: 4000 meters
  • Other: Rain
  • Expected to arise temporarily, from 01 October at 11:00 UTC, to day 01 of the month at 15:00 UTC
  • Wind: 230 degrees at 15